sensor_id;sensor_type;location;lat;lon;timestamp;P1;durP1;ratioP1;P2;durP2;ratioP2
16994;SDS011;8614;48.522;9.206;2023-12-04T00:00:07;33.20;;;26.37;;
16994;SDS011;8614;48.522;9.206;2023-12-04T00:02:37;31.07;;;25.90;;
16994;SDS011;8614;48.522;9.206;2023-12-04T00:05:07;28.30;;;25.07;;
16994;SDS011;8614;48.522;9.206;2023-12-04T00:07:34;28.77;;;24.27;;
16994;SDS011;8614;48.522;9.206;2023-12-04T00:10:01;28.20;;;24.70;;
16994;SDS011;8614;48.522;9.206;2023-12-04T00:12:28;31.77;;;25.00;;
16994;SDS011;8614;48.522;9.206;2023-12-04T00:14:54;30.87;;;26.43;;
16994;SDS011;8614;48.522;9.206;2023-12-04T00:17:21;33.50;;;25.87;;
16994;SDS011;8614;48.522;9.206;2023-12-04T00:19:48;32.97;;;27.17;;
16994;SDS011;8614;48.522;9.206;2023-12-04T00:22:16;30.70;;;26.00;;
16994;SDS011;8614;48.522;9.206;2023-12-04T00:24:43;29.80;;;25.67;;
16994;SDS011;8614;48.522;9.206;2023-12-04T00:27:10;28.63;;;25.53;;
16994;SDS011;8614;48.522;9.206;2023-12-04T00:29:37;30.70;;;25.80;;
16994;SDS011;8614;48.522;9.206;2023-12-04T00:32:04;36.20;;;27.37;;
16994;SDS011;8614;48.522;9.206;2023-12-04T00:34:31;29.73;;;25.77;;
16994;SDS011;8614;48.522;9.206;2023-12-04T00:36:58;28.80;;;25.67;;
16994;SDS011;8614;48.522;9.206;2023-12-04T00:39:26;28.07;;;24.93;;
16994;SDS011;8614;48.522;9.206;2023-12-04T00:41:53;28.23;;;25.33;;
16994;SDS011;8614;48.522;9.206;2023-12-04T00:44:20;28.27;;;24.87;;
16994;SDS011;8614;48.522;9.206;2023-12-04T00:46:47;29.80;;;25.33;;
16994;SDS011;8614;48.522;9.206;2023-12-04T00:49:13;34.20;;;25.93;;
16994;SDS011;8614;48.522;9.206;2023-12-04T00:51:40;28.37;;;24.63;;
16994;SDS011;8614;48.522;9.206;2023-12-04T00:54:07;29.93;;;25.60;;
16994;SDS011;8614;48.522;9.206;2023-12-04T00:56:35;29.83;;;25.33;;
16994;SDS011;8614;48.522;9.206;2023-12-04T00:59:04;28.93;;;24.57;;
16994;SDS011;8614;48.522;9.206;2023-12-04T01:01:31;31.37;;;25.20;;
16994;SDS011;8614;48.522;9.206;2023-12-04T01:03:58;34.77;;;26.00;;
16994;SDS011;8614;48.522;9.206;2023-12-04T01:06:25;33.43;;;26.00;;
16994;SDS011;8614;48.522;9.206;2023-12-04T01:08:53;31.53;;;25.70;;
16994;SDS011;8614;48.522;9.206;2023-12-04T01:11:20;33.77;;;26.03;;
16994;SDS011;8614;48.522;9.206;2023-12-04T01:13:49;29.93;;;25.67;;
16994;SDS011;8614;48.522;9.206;2023-12-04T01:16:16;33.80;;;26.43;;
16994;SDS011;8614;48.522;9.206;2023-12-04T01:18:42;36.97;;;26.20;;
16994;SDS011;8614;48.522;9.206;2023-12-04T01:21:09;34.17;;;25.47;;
16994;SDS011;8614;48.522;9.206;2023-12-04T01:23:36;33.43;;;26.27;;
16994;SDS011;8614;48.522;9.206;2023-12-04T01:26:03;29.87;;;25.13;;
16994;SDS011;8614;48.522;9.206;2023-12-04T01:28:30;31.97;;;26.30;;
16994;SDS011;8614;48.522;9.206;2023-12-04T01:30:59;32.87;;;25.90;;
16994;SDS011;8614;48.522;9.206;2023-12-04T01:33:25;29.33;;;24.90;;
16994;SDS011;8614;48.522;9.206;2023-12-04T01:35:52;29.13;;;24.50;;
16994;SDS011;8614;48.522;9.206;2023-12-04T01:38:19;27.00;;;23.87;;
16994;SDS011;8614;48.522;9.206;2023-12-04T01:40:46;32.77;;;25.93;;
16994;SDS011;8614;48.522;9.206;2023-12-04T01:43:13;33.03;;;26.87;;
16994;SDS011;8614;48.522;9.206;2023-12-04T01:45:40;28.40;;;25.33;;
16994;SDS011;8614;48.522;9.206;2023-12-04T01:48:08;27.10;;;23.50;;
16994;SDS011;8614;48.522;9.206;2023-12-04T01:50:35;29.27;;;24.90;;
16994;SDS011;8614;48.522;9.206;2023-12-04T01:53:03;30.53;;;23.97;;
16994;SDS011;8614;48.522;9.206;2023-12-04T01:55:30;28.67;;;23.53;;
16994;SDS011;8614;48.522;9.206;2023-12-04T01:58:00;27.00;;;23.67;;
16994;SDS011;8614;48.522;9.206;2023-12-04T02:00:29;27.60;;;23.17;;
16994;SDS011;8614;48.522;9.206;2023-12-04T02:02:57;26.70;;;23.23;;
16994;SDS011;8614;48.522;9.206;2023-12-04T02:05:27;31.10;;;24.43;;
16994;SDS011;8614;48.522;9.206;2023-12-04T02:07:54;26.37;;;21.70;;
16994;SDS011;8614;48.522;9.206;2023-12-04T02:10:21;26.30;;;23.47;;
16994;SDS011;8614;48.522;9.206;2023-12-04T02:12:48;27.87;;;24.87;;
16994;SDS011;8614;48.522;9.206;2023-12-04T02:15:15;25.63;;;22.50;;
16994;SDS011;8614;48.522;9.206;2023-12-04T02:17:42;30.23;;;25.60;;
16994;SDS011;8614;48.522;9.206;2023-12-04T02:20:12;26.60;;;23.57;;
16994;SDS011;8614;48.522;9.206;2023-12-04T02:22:40;28.43;;;24.53;;
16994;SDS011;8614;48.522;9.206;2023-12-04T02:25:09;26.53;;;23.70;;
16994;SDS011;8614;48.522;9.206;2023-12-04T02:27:38;30.47;;;24.93;;
16994;SDS011;8614;48.522;9.206;2023-12-04T02:30:07;30.83;;;23.50;;
16994;SDS011;8614;48.522;9.206;2023-12-04T02:32:39;26.00;;;23.17;;
16994;SDS011;8614;48.522;9.206;2023-12-04T02:35:10;26.13;;;23.40;;
16994;SDS011;8614;48.522;9.206;2023-12-04T02:37:40;27.93;;;24.87;;
16994;SDS011;8614;48.522;9.206;2023-12-04T02:40:09;29.27;;;24.80;;
16994;SDS011;8614;48.522;9.206;2023-12-04T02:42:37;30.00;;;24.80;;
16994;SDS011;8614;48.522;9.206;2023-12-04T02:45:05;30.37;;;26.37;;
16994;SDS011;8614;48.522;9.206;2023-12-04T02:47:32;31.60;;;26.53;;
16994;SDS011;8614;48.522;9.206;2023-12-04T02:49:59;29.77;;;25.33;;
16994;SDS011;8614;48.522;9.206;2023-12-04T02:52:26;30.27;;;25.47;;
16994;SDS011;8614;48.522;9.206;2023-12-04T02:54:53;32.13;;;25.60;;
16994;SDS011;8614;48.522;9.206;2023-12-04T02:57:21;29.57;;;25.53;;
16994;SDS011;8614;48.522;9.206;2023-12-04T02:59:48;31.90;;;25.80;;
16994;SDS011;8614;48.522;9.206;2023-12-04T03:02:15;30.93;;;26.13;;
16994;SDS011;8614;48.522;9.206;2023-12-04T03:04:42;32.47;;;27.07;;
16994;SDS011;8614;48.522;9.206;2023-12-04T03:07:09;30.03;;;25.13;;
16994;SDS011;8614;48.522;9.206;2023-12-04T03:09:36;31.33;;;25.10;;
16994;SDS011;8614;48.522;9.206;2023-12-04T03:12:03;31.83;;;25.53;;
16994;SDS011;8614;48.522;9.206;2023-12-04T03:14:32;28.13;;;25.13;;
16994;SDS011;8614;48.522;9.206;2023-12-04T03:16:59;31.90;;;26.10;;
16994;SDS011;8614;48.522;9.206;2023-12-04T03:19:26;35.53;;;26.57;;
16994;SDS011;8614;48.522;9.206;2023-12-04T03:21:53;28.27;;;25.27;;
16994;SDS011;8614;48.522;9.206;2023-12-04T03:24:20;28.70;;;25.53;;
16994;SDS011;8614;48.522;9.206;2023-12-04T03:26:47;29.43;;;24.97;;
16994;SDS011;8614;48.522;9.206;2023-12-04T03:29:13;28.70;;;25.30;;
16994;SDS011;8614;48.522;9.206;2023-12-04T03:31:42;31.00;;;24.67;;
16994;SDS011;8614;48.522;9.206;2023-12-04T03:34:09;28.07;;;24.13;;
16994;SDS011;8614;48.522;9.206;2023-12-04T03:36:36;29.07;;;24.93;;
16994;SDS011;8614;48.522;9.206;2023-12-04T03:39:02;29.83;;;25.03;;
16994;SDS011;8614;48.522;9.206;2023-12-04T03:41:29;29.63;;;25.53;;
16994;SDS011;8614;48.522;9.206;2023-12-04T03:43:56;28.97;;;25.47;;
16994;SDS011;8614;48.522;9.206;2023-12-04T03:46:23;31.07;;;24.80;;
16994;SDS011;8614;48.522;9.206;2023-12-04T03:48:52;27.93;;;24.40;;
16994;SDS011;8614;48.522;9.206;2023-12-04T03:51:19;30.70;;;25.53;;
16994;SDS011;8614;48.522;9.206;2023-12-04T03:53:45;33.03;;;26.47;;
16994;SDS011;8614;48.522;9.206;2023-12-04T03:56:12;30.20;;;25.43;;
16994;SDS011;8614;48.522;9.206;2023-12-04T03:58:39;29.90;;;25.03;;
16994;SDS011;8614;48.522;9.206;2023-12-04T04:01:06;31.63;;;26.00;;
16994;SDS011;8614;48.522;9.206;2023-12-04T04:03:33;29.20;;;24.57;;
16994;SDS011;8614;48.522;9.206;2023-12-04T04:06:01;31.13;;;25.03;;
16994;SDS011;8614;48.522;9.206;2023-12-04T04:08:28;32.07;;;26.23;;
16994;SDS011;8614;48.522;9.206;2023-12-04T04:10:55;28.77;;;25.50;;
16994;SDS011;8614;48.522;9.206;2023-12-04T04:13:21;27.83;;;25.00;;
16994;SDS011;8614;48.522;9.206;2023-12-04T04:15:48;30.50;;;24.87;;
16994;SDS011;8614;48.522;9.206;2023-12-04T04:18:15;27.73;;;24.63;;
16994;SDS011;8614;48.522;9.206;2023-12-04T04:20:42;26.77;;;23.93;;
16994;SDS011;8614;48.522;9.206;2023-12-04T04:23:10;27.93;;;23.83;;
16994;SDS011;8614;48.522;9.206;2023-12-04T04:25:37;26.83;;;23.53;;
16994;SDS011;8614;48.522;9.206;2023-12-04T04:28:03;26.03;;;23.43;;
16994;SDS011;8614;48.522;9.206;2023-12-04T04:30:30;30.93;;;26.30;;
16994;SDS011;8614;48.522;9.206;2023-12-04T04:32:57;29.00;;;24.03;;
16994;SDS011;8614;48.522;9.206;2023-12-04T04:35:24;26.83;;;24.03;;
16994;SDS011;8614;48.522;9.206;2023-12-04T04:37:50;25.97;;;23.17;;
16994;SDS011;8614;48.522;9.206;2023-12-04T04:40:19;26.47;;;23.67;;
16994;SDS011;8614;48.522;9.206;2023-12-04T04:42:45;26.27;;;23.53;;
16994;SDS011;8614;48.522;9.206;2023-12-04T04:45:13;27.47;;;24.57;;
16994;SDS011;8614;48.522;9.206;2023-12-04T04:47:40;27.73;;;23.57;;
16994;SDS011;8614;48.522;9.206;2023-12-04T04:50:07;25.93;;;23.37;;
16994;SDS011;8614;48.522;9.206;2023-12-04T04:52:34;26.00;;;23.17;;
16994;SDS011;8614;48.522;9.206;2023-12-04T04:55:01;26.30;;;23.57;;
16994;SDS011;8614;48.522;9.206;2023-12-04T04:57:29;26.20;;;23.50;;
16994;SDS011;8614;48.522;9.206;2023-12-04T04:59:56;26.13;;;23.37;;
16994;SDS011;8614;48.522;9.206;2023-12-04T05:02:22;25.60;;;22.80;;
16994;SDS011;8614;48.522;9.206;2023-12-04T05:04:49;27.97;;;24.33;;
16994;SDS011;8614;48.522;9.206;2023-12-04T05:07:16;25.53;;;23.00;;
16994;SDS011;8614;48.522;9.206;2023-12-04T05:09:43;25.43;;;22.70;;
16994;SDS011;8614;48.522;9.206;2023-12-04T05:12:10;26.07;;;23.23;;
16994;SDS011;8614;48.522;9.206;2023-12-04T05:14:38;27.83;;;23.67;;
16994;SDS011;8614;48.522;9.206;2023-12-04T05:17:05;29.10;;;25.57;;
16994;SDS011;8614;48.522;9.206;2023-12-04T05:19:31;26.33;;;23.43;;
16994;SDS011;8614;48.522;9.206;2023-12-04T05:21:58;26.27;;;23.40;;
16994;SDS011;8614;48.522;9.206;2023-12-04T05:24:25;25.43;;;22.73;;
16994;SDS011;8614;48.522;9.206;2023-12-04T05:26:52;24.27;;;21.70;;
16994;SDS011;8614;48.522;9.206;2023-12-04T05:29:18;26.00;;;23.20;;
16994;SDS011;8614;48.522;9.206;2023-12-04T05:31:47;26.77;;;23.97;;
16994;SDS011;8614;48.522;9.206;2023-12-04T05:34:14;25.73;;;23.03;;
16994;SDS011;8614;48.522;9.206;2023-12-04T05:36:40;27.53;;;24.77;;
16994;SDS011;8614;48.522;9.206;2023-12-04T05:39:07;25.73;;;22.93;;
16994;SDS011;8614;48.522;9.206;2023-12-04T05:41:34;27.83;;;22.80;;
16994;SDS011;8614;48.522;9.206;2023-12-04T05:44:01;27.30;;;23.50;;
16994;SDS011;8614;48.522;9.206;2023-12-04T05:46:28;26.23;;;23.07;;
16994;SDS011;8614;48.522;9.206;2023-12-04T05:48:56;26.83;;;23.27;;
16994;SDS011;8614;48.522;9.206;2023-12-04T05:51:23;27.93;;;23.37;;
16994;SDS011;8614;48.522;9.206;2023-12-04T05:53:49;26.83;;;23.93;;
16994;SDS011;8614;48.522;9.206;2023-12-04T05:56:16;27.10;;;22.57;;
16994;SDS011;8614;48.522;9.206;2023-12-04T05:58:43;24.83;;;22.33;;
16994;SDS011;8614;48.522;9.206;2023-12-04T06:01:10;25.17;;;22.70;;
16994;SDS011;8614;48.522;9.206;2023-12-04T06:03:36;25.17;;;22.50;;
16994;SDS011;8614;48.522;9.206;2023-12-04T06:06:05;24.23;;;21.73;;
16994;SDS011;8614;48.522;9.206;2023-12-04T06:08:33;26.60;;;23.77;;
16994;SDS011;8614;48.522;9.206;2023-12-04T06:10:59;25.93;;;23.23;;
16994;SDS011;8614;48.522;9.206;2023-12-04T06:13:26;26.00;;;22.90;;
16994;SDS011;8614;48.522;9.206;2023-12-04T06:15:53;26.90;;;22.53;;
16994;SDS011;8614;48.522;9.206;2023-12-04T06:18:20;26.33;;;23.20;;
16994;SDS011;8614;48.522;9.206;2023-12-04T06:20:46;25.43;;;22.73;;
16994;SDS011;8614;48.522;9.206;2023-12-04T06:23:15;23.60;;;21.37;;
16994;SDS011;8614;48.522;9.206;2023-12-04T06:25:43;23.77;;;21.43;;
16994;SDS011;8614;48.522;9.206;2023-12-04T06:28:10;24.13;;;21.57;;
16994;SDS011;8614;48.522;9.206;2023-12-04T06:30:38;25.87;;;23.23;;
16994;SDS011;8614;48.522;9.206;2023-12-04T06:33:05;23.40;;;20.90;;
16994;SDS011;8614;48.522;9.206;2023-12-04T06:35:34;23.33;;;21.03;;
16994;SDS011;8614;48.522;9.206;2023-12-04T06:38:03;23.97;;;21.47;;
16994;SDS011;8614;48.522;9.206;2023-12-04T06:40:34;23.40;;;21.20;;
16994;SDS011;8614;48.522;9.206;2023-12-04T06:43:02;25.77;;;23.07;;
16994;SDS011;8614;48.522;9.206;2023-12-04T06:45:29;24.10;;;21.60;;
16994;SDS011;8614;48.522;9.206;2023-12-04T06:47:57;24.47;;;21.97;;
16994;SDS011;8614;48.522;9.206;2023-12-04T06:50:25;25.70;;;23.10;;
16994;SDS011;8614;48.522;9.206;2023-12-04T06:52:52;24.03;;;21.63;;
16994;SDS011;8614;48.522;9.206;2023-12-04T06:55:19;25.03;;;22.53;;
16994;SDS011;8614;48.522;9.206;2023-12-04T06:57:47;24.97;;;22.53;;
16994;SDS011;8614;48.522;9.206;2023-12-04T07:00:14;25.90;;;23.20;;
16994;SDS011;8614;48.522;9.206;2023-12-04T07:02:42;25.90;;;22.93;;
16994;SDS011;8614;48.522;9.206;2023-12-04T07:05:08;26.30;;;23.53;;
16994;SDS011;8614;48.522;9.206;2023-12-04T07:07:35;24.87;;;22.20;;
16994;SDS011;8614;48.522;9.206;2023-12-04T07:10:02;23.87;;;21.40;;
16994;SDS011;8614;48.522;9.206;2023-12-04T07:12:29;25.70;;;22.43;;
16994;SDS011;8614;48.522;9.206;2023-12-04T07:14:57;23.87;;;21.30;;
16994;SDS011;8614;48.522;9.206;2023-12-04T07:17:24;24.60;;;22.00;;
16994;SDS011;8614;48.522;9.206;2023-12-04T07:19:51;24.90;;;22.47;;
16994;SDS011;8614;48.522;9.206;2023-12-04T07:22:18;23.93;;;21.50;;
16994;SDS011;8614;48.522;9.206;2023-12-04T07:24:45;24.10;;;21.53;;
16994;SDS011;8614;48.522;9.206;2023-12-04T07:27:12;24.07;;;21.50;;
16994;SDS011;8614;48.522;9.206;2023-12-04T07:29:38;24.03;;;21.53;;
16994;SDS011;8614;48.522;9.206;2023-12-04T07:32:07;24.80;;;22.20;;
16994;SDS011;8614;48.522;9.206;2023-12-04T07:34:34;23.63;;;21.23;;
16994;SDS011;8614;48.522;9.206;2023-12-04T07:37:02;25.60;;;22.90;;
16994;SDS011;8614;48.522;9.206;2023-12-04T07:39:29;24.83;;;22.33;;
16994;SDS011;8614;48.522;9.206;2023-12-04T07:41:55;25.67;;;22.70;;
16994;SDS011;8614;48.522;9.206;2023-12-04T07:44:22;25.17;;;22.57;;
16994;SDS011;8614;48.522;9.206;2023-12-04T07:46:49;24.17;;;21.83;;
16994;SDS011;8614;48.522;9.206;2023-12-04T07:49:17;25.27;;;22.77;;
16994;SDS011;8614;48.522;9.206;2023-12-04T07:51:44;23.97;;;21.50;;
16994;SDS011;8614;48.522;9.206;2023-12-04T07:54:10;23.83;;;21.33;;
16994;SDS011;8614;48.522;9.206;2023-12-04T07:56:37;23.60;;;20.93;;
16994;SDS011;8614;48.522;9.206;2023-12-04T07:59:04;23.27;;;20.80;;
16994;SDS011;8614;48.522;9.206;2023-12-04T08:01:31;22.97;;;20.80;;
16994;SDS011;8614;48.522;9.206;2023-12-04T08:03:57;21.90;;;19.80;;
16994;SDS011;8614;48.522;9.206;2023-12-04T08:06:26;23.90;;;21.37;;
16994;SDS011;8614;48.522;9.206;2023-12-04T08:08:53;23.63;;;21.07;;
16994;SDS011;8614;48.522;9.206;2023-12-04T08:11:20;23.80;;;21.40;;
16994;SDS011;8614;48.522;9.206;2023-12-04T08:13:47;23.43;;;20.97;;
16994;SDS011;8614;48.522;9.206;2023-12-04T08:16:14;27.07;;;23.30;;
16994;SDS011;8614;48.522;9.206;2023-12-04T08:18:41;24.13;;;21.57;;
16994;SDS011;8614;48.522;9.206;2023-12-04T08:21:08;30.23;;;23.93;;
16994;SDS011;8614;48.522;9.206;2023-12-04T08:23:38;26.20;;;23.33;;
16994;SDS011;8614;48.522;9.206;2023-12-04T08:26:05;26.33;;;23.63;;
16994;SDS011;8614;48.522;9.206;2023-12-04T08:28:32;27.10;;;24.17;;
16994;SDS011;8614;48.522;9.206;2023-12-04T08:31:00;25.10;;;22.57;;
16994;SDS011;8614;48.522;9.206;2023-12-04T08:33:27;25.83;;;23.13;;
16994;SDS011;8614;48.522;9.206;2023-12-04T08:35:54;24.07;;;21.67;;
16994;SDS011;8614;48.522;9.206;2023-12-04T08:38:20;24.80;;;22.13;;
16994;SDS011;8614;48.522;9.206;2023-12-04T08:40:49;25.03;;;22.43;;
16994;SDS011;8614;48.522;9.206;2023-12-04T08:43:15;22.70;;;20.43;;
16994;SDS011;8614;48.522;9.206;2023-12-04T08:45:43;23.23;;;20.83;;
16994;SDS011;8614;48.522;9.206;2023-12-04T08:48:11;23.40;;;21.07;;
16994;SDS011;8614;48.522;9.206;2023-12-04T08:50:38;23.00;;;20.80;;
16994;SDS011;8614;48.522;9.206;2023-12-04T08:53:05;23.77;;;21.37;;
16994;SDS011;8614;48.522;9.206;2023-12-04T08:55:32;22.50;;;20.20;;
16994;SDS011;8614;48.522;9.206;2023-12-04T08:58:00;24.40;;;20.80;;
16994;SDS011;8614;48.522;9.206;2023-12-04T09:00:30;22.43;;;20.23;;
16994;SDS011;8614;48.522;9.206;2023-12-04T09:03:54;21.03;;;18.87;;
16994;SDS011;8614;48.522;9.206;2023-12-04T09:06:22;21.17;;;19.13;;
16994;SDS011;8614;48.522;9.206;2023-12-04T09:08:49;22.03;;;19.87;;
16994;SDS011;8614;48.522;9.206;2023-12-04T09:11:15;21.63;;;19.37;;
16994;SDS011;8614;48.522;9.206;2023-12-04T09:13:44;22.90;;;20.50;;
16994;SDS011;8614;48.522;9.206;2023-12-04T09:16:10;22.43;;;20.23;;
16994;SDS011;8614;48.522;9.206;2023-12-04T09:18:38;22.80;;;20.20;;
16994;SDS011;8614;48.522;9.206;2023-12-04T09:21:08;22.73;;;20.60;;
16994;SDS011;8614;48.522;9.206;2023-12-04T09:23:35;21.50;;;19.40;;
16994;SDS011;8614;48.522;9.206;2023-12-04T09:26:02;22.33;;;20.13;;
16994;SDS011;8614;48.522;9.206;2023-12-04T09:28:29;23.10;;;20.80;;
16994;SDS011;8614;48.522;9.206;2023-12-04T09:30:57;21.93;;;19.90;;
16994;SDS011;8614;48.522;9.206;2023-12-04T09:33:24;23.30;;;21.00;;
16994;SDS011;8614;48.522;9.206;2023-12-04T09:35:51;22.90;;;20.70;;
16994;SDS011;8614;48.522;9.206;2023-12-04T09:38:18;21.83;;;19.87;;
16994;SDS011;8614;48.522;9.206;2023-12-04T09:40:45;20.70;;;18.70;;
16994;SDS011;8614;48.522;9.206;2023-12-04T09:43:12;22.47;;;20.07;;
16994;SDS011;8614;48.522;9.206;2023-12-04T09:45:40;22.37;;;20.33;;
16994;SDS011;8614;48.522;9.206;2023-12-04T09:48:09;21.93;;;20.03;;
16994;SDS011;8614;48.522;9.206;2023-12-04T09:50:37;21.53;;;19.43;;
16994;SDS011;8614;48.522;9.206;2023-12-04T09:53:04;21.53;;;19.47;;
16994;SDS011;8614;48.522;9.206;2023-12-04T09:55:36;21.83;;;19.63;;
16994;SDS011;8614;48.522;9.206;2023-12-04T09:58:03;21.77;;;19.73;;
16994;SDS011;8614;48.522;9.206;2023-12-04T10:00:30;22.67;;;20.60;;
16994;SDS011;8614;48.522;9.206;2023-12-04T10:02:58;22.90;;;20.70;;
16994;SDS011;8614;48.522;9.206;2023-12-04T10:05:27;22.20;;;19.60;;
16994;SDS011;8614;48.522;9.206;2023-12-04T10:07:53;21.33;;;19.33;;
16994;SDS011;8614;48.522;9.206;2023-12-04T10:10:20;22.70;;;20.60;;
16994;SDS011;8614;48.522;9.206;2023-12-04T10:12:47;20.07;;;18.27;;
16994;SDS011;8614;48.522;9.206;2023-12-04T10:15:14;21.80;;;19.80;;
16994;SDS011;8614;48.522;9.206;2023-12-04T10:17:41;21.70;;;19.63;;
16994;SDS011;8614;48.522;9.206;2023-12-04T10:20:10;22.77;;;20.57;;
16994;SDS011;8614;48.522;9.206;2023-12-04T10:22:40;21.93;;;19.83;;
16994;SDS011;8614;48.522;9.206;2023-12-04T10:25:19;20.33;;;18.53;;
16994;SDS011;8614;48.522;9.206;2023-12-04T10:27:46;19.93;;;18.20;;
16994;SDS011;8614;48.522;9.206;2023-12-04T10:30:23;20.57;;;18.67;;
16994;SDS011;8614;48.522;9.206;2023-12-04T10:32:55;20.57;;;18.60;;
16994;SDS011;8614;48.522;9.206;2023-12-04T10:35:25;19.60;;;17.83;;
16994;SDS011;8614;48.522;9.206;2023-12-04T10:37:55;19.47;;;17.77;;
16994;SDS011;8614;48.522;9.206;2023-12-04T10:40:23;20.23;;;18.43;;
16994;SDS011;8614;48.522;9.206;2023-12-04T10:42:50;19.50;;;17.70;;
16994;SDS011;8614;48.522;9.206;2023-12-04T10:45:17;18.90;;;17.30;;
16994;SDS011;8614;48.522;9.206;2023-12-04T10:47:47;19.93;;;18.13;;
16994;SDS011;8614;48.522;9.206;2023-12-04T10:50:16;20.40;;;18.60;;
16994;SDS011;8614;48.522;9.206;2023-12-04T10:52:44;18.53;;;16.93;;
16994;SDS011;8614;48.522;9.206;2023-12-04T10:55:13;20.97;;;18.93;;
16994;SDS011;8614;48.522;9.206;2023-12-04T10:57:40;20.47;;;18.47;;
16994;SDS011;8614;48.522;9.206;2023-12-04T11:00:10;20.60;;;18.60;;
16994;SDS011;8614;48.522;9.206;2023-12-04T11:02:42;19.17;;;17.57;;
16994;SDS011;8614;48.522;9.206;2023-12-04T11:05:12;20.07;;;18.17;;
16994;SDS011;8614;48.522;9.206;2023-12-04T11:07:44;19.13;;;17.33;;
16994;SDS011;8614;48.522;9.206;2023-12-04T11:10:15;18.90;;;17.30;;
16994;SDS011;8614;48.522;9.206;2023-12-04T11:12:45;20.37;;;18.53;;
16994;SDS011;8614;48.522;9.206;2023-12-04T11:15:16;21.93;;;20.00;;
16994;SDS011;8614;48.522;9.206;2023-12-04T11:17:47;19.93;;;18.13;;
16994;SDS011;8614;48.522;9.206;2023-12-04T11:20:20;18.83;;;17.23;;
16994;SDS011;8614;48.522;9.206;2023-12-04T11:22:52;19.63;;;17.83;;
16994;SDS011;8614;48.522;9.206;2023-12-04T11:25:22;19.70;;;18.10;;
16994;SDS011;8614;48.522;9.206;2023-12-04T11:27:50;19.83;;;18.13;;
16994;SDS011;8614;48.522;9.206;2023-12-04T11:30:17;20.73;;;18.93;;
16994;SDS011;8614;48.522;9.206;2023-12-04T11:32:45;20.83;;;18.93;;
16994;SDS011;8614;48.522;9.206;2023-12-04T11:35:13;24.53;;;22.13;;
16994;SDS011;8614;48.522;9.206;2023-12-04T11:37:43;23.90;;;21.73;;
16994;SDS011;8614;48.522;9.206;2023-12-04T11:40:11;23.27;;;21.23;;
16994;SDS011;8614;48.522;9.206;2023-12-04T11:42:40;23.17;;;21.10;;
16994;SDS011;8614;48.522;9.206;2023-12-04T11:45:08;21.90;;;20.00;;
16994;SDS011;8614;48.522;9.206;2023-12-04T11:47:48;21.47;;;19.63;;
16994;SDS011;8614;48.522;9.206;2023-12-04T11:50:15;22.17;;;20.07;;
16994;SDS011;8614;48.522;9.206;2023-12-04T11:52:43;22.07;;;20.07;;
16994;SDS011;8614;48.522;9.206;2023-12-04T11:55:11;22.00;;;20.10;;
16994;SDS011;8614;48.522;9.206;2023-12-04T11:57:38;22.00;;;20.07;;
16994;SDS011;8614;48.522;9.206;2023-12-04T12:00:11;23.77;;;21.57;;
16994;SDS011;8614;48.522;9.206;2023-12-04T12:02:46;22.33;;;20.43;;
16994;SDS011;8614;48.522;9.206;2023-12-04T12:05:14;21.77;;;19.77;;
16994;SDS011;8614;48.522;9.206;2023-12-04T12:07:41;21.67;;;19.73;;
16994;SDS011;8614;48.522;9.206;2023-12-04T12:10:09;21.97;;;19.97;;
16994;SDS011;8614;48.522;9.206;2023-12-04T12:12:38;23.80;;;21.67;;
16994;SDS011;8614;48.522;9.206;2023-12-04T12:15:10;23.13;;;20.93;;
16994;SDS011;8614;48.522;9.206;2023-12-04T12:17:38;23.33;;;21.27;;
16994;SDS011;8614;48.522;9.206;2023-12-04T12:20:06;21.87;;;19.83;;
16994;SDS011;8614;48.522;9.206;2023-12-04T12:22:34;22.73;;;20.63;;
16994;SDS011;8614;48.522;9.206;2023-12-04T12:25:04;25.30;;;22.80;;
16994;SDS011;8614;48.522;9.206;2023-12-04T12:27:31;24.20;;;22.00;;
16994;SDS011;8614;48.522;9.206;2023-12-04T12:29:59;24.70;;;22.20;;
16994;SDS011;8614;48.522;9.206;2023-12-04T12:32:28;22.73;;;20.63;;
16994;SDS011;8614;48.522;9.206;2023-12-04T12:34:55;22.40;;;20.40;;
16994;SDS011;8614;48.522;9.206;2023-12-04T12:37:22;22.17;;;19.97;;
16994;SDS011;8614;48.522;9.206;2023-12-04T12:39:49;21.48;;;19.67;;
16994;SDS011;8614;48.522;9.206;2023-12-04T12:42:20;21.97;;;20.07;;
16994;SDS011;8614;48.522;9.206;2023-12-04T12:44:47;20.57;;;18.77;;
16994;SDS011;8614;48.522;9.206;2023-12-04T12:47:16;20.33;;;18.63;;
16994;SDS011;8614;48.522;9.206;2023-12-04T12:49:43;20.60;;;18.73;;
16994;SDS011;8614;48.522;9.206;2023-12-04T12:52:10;21.90;;;19.73;;
16994;SDS011;8614;48.522;9.206;2023-12-04T12:54:36;21.80;;;19.80;;
16994;SDS011;8614;48.522;9.206;2023-12-04T12:57:03;22.00;;;20.10;;
16994;SDS011;8614;48.522;9.206;2023-12-04T12:59:32;21.60;;;19.60;;
16994;SDS011;8614;48.522;9.206;2023-12-04T13:01:59;21.07;;;19.20;;
16994;SDS011;8614;48.522;9.206;2023-12-04T13:04:28;21.13;;;19.33;;
16994;SDS011;8614;48.522;9.206;2023-12-04T13:07:00;21.27;;;19.27;;
16994;SDS011;8614;48.522;9.206;2023-12-04T13:09:28;21.73;;;19.83;;
16994;SDS011;8614;48.522;9.206;2023-12-04T13:11:54;22.60;;;20.70;;
16994;SDS011;8614;48.522;9.206;2023-12-04T13:14:21;21.83;;;19.90;;
16994;SDS011;8614;48.522;9.206;2023-12-04T13:16:48;24.23;;;22.13;;
16994;SDS011;8614;48.522;9.206;2023-12-04T13:19:16;23.80;;;21.50;;
16994;SDS011;8614;48.522;9.206;2023-12-04T13:21:44;23.17;;;20.93;;
16994;SDS011;8614;48.522;9.206;2023-12-04T13:24:10;24.03;;;21.83;;
16994;SDS011;8614;48.522;9.206;2023-12-04T13:26:37;25.17;;;22.87;;
16994;SDS011;8614;48.522;9.206;2023-12-04T13:29:05;23.40;;;21.30;;
16994;SDS011;8614;48.522;9.206;2023-12-04T13:31:32;22.63;;;20.57;;
16994;SDS011;8614;48.522;9.206;2023-12-04T13:33:59;22.93;;;20.83;;
16994;SDS011;8614;48.522;9.206;2023-12-04T13:36:28;22.97;;;20.83;;
16994;SDS011;8614;48.522;9.206;2023-12-04T13:38:56;23.70;;;21.50;;
16994;SDS011;8614;48.522;9.206;2023-12-04T13:41:23;22.50;;;20.47;;
16994;SDS011;8614;48.522;9.206;2023-12-04T13:44:04;21.70;;;19.70;;
16994;SDS011;8614;48.522;9.206;2023-12-04T13:46:30;21.53;;;19.53;;
16994;SDS011;8614;48.522;9.206;2023-12-04T13:48:57;22.33;;;20.17;;
16994;SDS011;8614;48.522;9.206;2023-12-04T13:51:24;22.00;;;19.97;;
16994;SDS011;8614;48.522;9.206;2023-12-04T13:53:52;21.60;;;19.70;;
16994;SDS011;8614;48.522;9.206;2023-12-04T13:56:23;22.23;;;20.23;;
16994;SDS011;8614;48.522;9.206;2023-12-04T13:59:07;23.97;;;21.63;;
16994;SDS011;8614;48.522;9.206;2023-12-04T14:01:41;22.63;;;20.60;;
16994;SDS011;8614;48.522;9.206;2023-12-04T14:04:08;22.30;;;20.20;;
16994;SDS011;8614;48.522;9.206;2023-12-04T14:06:35;23.03;;;20.90;;
16994;SDS011;8614;48.522;9.206;2023-12-04T14:09:02;23.43;;;21.33;;
16994;SDS011;8614;48.522;9.206;2023-12-04T14:11:32;24.00;;;21.80;;
16994;SDS011;8614;48.522;9.206;2023-12-04T14:13:57;22.73;;;20.83;;
16994;SDS011;8614;48.522;9.206;2023-12-04T14:16:24;23.80;;;21.60;;
16994;SDS011;8614;48.522;9.206;2023-12-04T14:18:51;23.73;;;21.53;;
16994;SDS011;8614;48.522;9.206;2023-12-04T14:21:18;24.63;;;22.40;;
16994;SDS011;8614;48.522;9.206;2023-12-04T14:23:45;24.10;;;21.87;;
16994;SDS011;8614;48.522;9.206;2023-12-04T14:26:12;23.33;;;21.17;;
16994;SDS011;8614;48.522;9.206;2023-12-04T14:28:40;24.77;;;22.47;;
16994;SDS011;8614;48.522;9.206;2023-12-04T14:31:07;23.43;;;21.43;;
16994;SDS011;8614;48.522;9.206;2023-12-04T14:33:33;23.87;;;21.47;;
16994;SDS011;8614;48.522;9.206;2023-12-04T14:36:00;23.87;;;21.57;;